Fort Mitchell, Alabama
Current Conditions -  °F | °C
As of 3:58 AM on Saturday 25 Oct 2014 (Local Time) from KLSF Reporting Station
Moderate Fog Moderate Fog  
Wind Chill: 42°   Ceiling: Unl
Heat Index: 42°   Visibility: 0.5mi
Dew Point: 42°   Wind: 1mph
Humidity: 99%   Direction: 130°SE
Pressure: 30.02"   Gusts: NA
Location:  32.34°N, 85.02°W
Report Text: KLSF 250858Z AUTO 13001KT 1/2SM R33/1400FT FG CLR 06/06 A3002 RMK AO2 UPB0825E0833 SLP168 P0000 60000 T00580056 55003
Loading
Personal Weather Stations






























Interactive Weather Map
Tropical Storm Tracking
New forecast layout! Learn more

10-Day Weather Forecast

Advertisements
Track Severe Weather on mobile